• Join FlightAware (Why Join?)
  • Login
  • US Flag 
10:10AM EDT


 

Airport Tracker/Info


-or-


 

Live Flight TrackerFlight Track Log ✈ CSN6816 ✈ 21-Oct-2013 ✈ ZWTN / HTN - ZWWW / URC

Flight Track Log - Related Links

Times and Time Zones

All times are in EDT time to prevent confusion due to time zone crossing. See the CSN6816 flight status page for this flight to view local times or setup timezone preferences in your user account.

Time Position Orientation Groundspeed Altitude Reporting Facility
EDT Latitude Longitude Course Direction KTS MPH feet Rate Location/Type
02:44AM 37.1461 79.9693 38° Northeast  Level Estimated
02:45AM 37.2536 80.0740 38° Northeast  Level Estimated
02:46AM 37.3610 80.1789 38° Northeast  Level Estimated
02:47AM 37.4683 80.2842 38° Northeast  Level Estimated
02:48AM 37.5755 80.3898 38° Northeast  Level Estimated
02:49AM 37.6826 80.4957 38° Northeast  Level Estimated
02:50AM 37.7896 80.6019 38° Northeast  Level Estimated
02:51AM 37.8965 80.7084 38° Northeast  Level Estimated
02:52AM 38.0034 80.8151 38° Northeast  Level Estimated
02:53AM 38.1101 80.9223 38° Northeast  Level Estimated
02:54AM 38.2167 81.0297 38° Northeast  Level Estimated
02:55AM 38.3233 81.1374 38° Northeast  Level Estimated
02:56AM 38.4297 81.2455 38° Northeast  Level Estimated
02:57AM 38.5361 81.3539 39° Northeast  Level Estimated
02:58AM 38.6423 81.4626 39° Northeast  Level Estimated
02:59AM 38.7484 81.5716 39° Northeast  Level Estimated
03:00AM 38.8545 81.6809 39° Northeast  Level Estimated
03:01AM 38.9604 81.7906 39° Northeast  Level Estimated
03:02AM 39.0662 81.9006 39° Northeast  Level Estimated
03:03AM 39.1720 82.0109 39° Northeast  Level Estimated
03:04AM 39.2776 82.1216 39° Northeast  Level Estimated
03:05AM 39.3831 82.2326 39° Northeast  Level Estimated
03:06AM 39.4885 82.3439 39° Northeast  Level Estimated
03:07AM 39.5938 82.4556 39° Northeast  Level Estimated
03:08AM 39.6990 82.5676 39° Northeast  Level Estimated
03:09AM 39.8041 82.6800 39° Northeast  Level Estimated
03:10AM 39.9091 82.7927 39° Northeast  Level Estimated
03:11AM 40.0140 82.9057 40° Northeast  Level Estimated
03:12AM 40.1187 83.0191 40° Northeast  Level Estimated
03:13AM 40.2234 83.1328 40° Northeast  Level Estimated
03:14AM 40.3279 83.2469 40° Northeast  Level Estimated
03:15AM 40.4323 83.3614 40° Northeast  Level Estimated
03:16AM 40.5366 83.4762 40° Northeast  Level Estimated
03:17AM 40.6408 83.5913 40° Northeast  Level Estimated
03:18AM 40.7449 83.7068 40° Northeast  Level Estimated
03:19AM 40.8489 83.8227 40° Northeast  Level Estimated
03:20AM 40.9527 83.9390 40° Northeast  Level Estimated
03:21AM 41.0565 84.0556 40° Northeast  Level Estimated
03:22AM 41.1601 84.1726 40° Northeast  Level Estimated
03:23AM 41.2636 84.2899 40° Northeast  Level Estimated
03:24AM 41.3670 84.4076 41° Northeast  Level Estimated
03:25AM 41.4702 84.5257 41° Northeast  Level Estimated
03:26AM 41.5734 84.6442 41° Northeast  Level Estimated
03:27AM 41.6764 84.7631 41° Northeast  Level Estimated
03:28AM 41.7793 84.8823 41° Northeast  Level Estimated
03:29AM 41.8820 85.0019 41° Northeast  Level Estimated
03:30AM 41.9847 85.1219 41° Northeast  Level Estimated
03:31AM 42.0872 85.2423 41° Northeast  Level Estimated
03:32AM 42.1896 85.3631 41° Northeast  Level Estimated
03:33AM 42.2919 85.4843 41° Northeast  Level Estimated
03:34AM 42.3940 85.6058 41° Northeast  Level Estimated
03:35AM 42.4960 85.7278 41° Northeast  Level Estimated
03:36AM 42.5979 85.8501 41° Northeast  Level Estimated
03:37AM 42.6996 85.9729 42° Northeast  Level Estimated
03:38AM 42.8013 86.0960 42° Northeast  Level Estimated
03:39AM 42.9027 86.2196 42° Northeast  Level Estimated
03:40AM 43.0041 86.3436 42° Northeast  Level Estimated
03:41AM 43.1053 86.4680 42° Northeast  Level Estimated
03:42AM 43.2064 86.5928 42° Northeast  Level Estimated
03:43AM 43.3073 86.7180 42° Northeast  Level Estimated
03:44AM 43.4081 86.8436 42° Northeast  Level Estimated
03:45AM 43.5088 86.9697 42° Northeast  Level Estimated
03:46AM 43.6093 87.0961 42° Northeast  Level Estimated
03:47AM 43.7097 87.2230 42° Northeast  Level Estimated
03:48AM 43.8100 87.3503 42° Northeast  Level Estimated
03:49AM 43.9071 87.4742 43° Northeast  Level Estimated
03:50AM 43.9071 87.4742 144° Southeast  Level Estimated
03:51AM 43.9071 87.4742 144° Southeast  Level Estimated
03:52AM 43.9071 87.4742 144° Southeast  Level Estimated
03:53AM 43.9071 87.4742 144° Southeast  Level Estimated
03:54AM 43.9071 87.4742 144° Southeast  Level Estimated
03:55AM 43.9071 87.4742 144° Southeast  Level Estimated
03:56AM 43.9071 87.4742 144° Southeast  Level Estimated
03:57AM 43.9071 87.4742 144° Southeast  Level Estimated
03:58AM 43.9071 87.4742 144° Southeast  Level Estimated
03:59AM 43.9071 87.4742 144° Southeast  Level Estimated
04:00AM 43.9071 87.4742 144° Southeast  Level Estimated
04:01AM 43.9071 87.4742 144° Southeast  Level Estimated
04:02AM 43.9071 87.4742 144° Southeast  Level Estimated
04:03AM 43.9071 87.4742 144° Southeast  Level Estimated
04:04AM 43.9071 87.4742 144° Southeast  Level Estimated
04:05AM 43.9071 87.4742 144° Southeast  Level Estimated